Fort Pierce, FL

10:39 EST le 28 novembre 2014 (GMT -0500)
Kirchman South | Change Station
CLOSE
Current Station
Stations météorologiques personnelles
Location: Ft. Pierce, FL
Altitude: 18 ft
Stations météo à proximité

Alt. 18 ft 27.46 °N, 80.49 °W | Updated 4 minutes ago

Ciel dégagé
Ciel dégagé
60.0 ° F
Paraît 60.0 ° F
N
7.0
Vent Variable Vent de NNE
Gusts 7.0 mph

Aujourd'hui
Haut(e) -- | Bas -- ° F
--% Risque de précip.
Hier
Haut(e) -- | Bas -- ° F
Precip. -- pouce
6:52 AM 5:27 PM
Lune montante, 41% visible
Pression 30.28 pouce
Visibilité 10.0 Miles terrestres
Nuages Ciel dégagé
Point de rosée 50 ° F
Humidité 69%
Précipitations 0.00 pouce
Profondeur de la couche neigeuse Non disponible.
UV 1.7 sur 12
Pollen 4.60 sur 12
Qualité de l'air Non disponible.
Flu Activity Non disponible.
METAR KFPR 281453Z 34009KT 10SM CLR 15/08 A3028 RMK AO2 SLP253 T01500083 51014

More Conditions Fewer Conditions

Pression 30.28 pouce
Visibilité 10.0 Miles terrestres
Nuages Ciel dégagé
Point de rosée 50 ° F
Humidité 69%
Précipitations 0.00 pouce
Profondeur de la couche neigeuse Non disponible.
UV 1.7 sur 12
Pollen 4.60 sur 12
Qualité de l'air Non disponible.
Flu Activity Non disponible.
METAR KFPR 281453Z 34009KT 10SM CLR 15/08 A3028 RMK AO2 SLP253 T01500083 51014

More Conditions Fewer Conditions

10-Day Weather Forecast

Almanac

Astronomie

Nov. 28, 2014 Lever Coucher
Temps réel
Crépuscule civil
Crépuscule nautique
Crépuscule astronomique
Lune
Durée de lumière visible
Longueur du jour
Tomorrow will be .
, % of the Moon is Illuminated

Extrêmes aujourd'hui

State Highs State Lows

Community

WunderPhotos

Upload Photos

1,774,229 Photos téléchargées !

WunderBlogs® & News

Nearby

Qualité de l'air

  Qualité de l'air Indice de la qualité de l'air Polluant
Not available.

Épaisseur de neige

Station Depth Altitude

Activité sismique

Ville Distance Mag. Time & Date
Minimum magnitude displayed is 2.5.

Températures des eaux côtières

Lieu Température

Stations météo à proximité